Kotzebue, AK

10:38 PM AKDT on August 28, 2014 (GMT -0800)
Wien Memorial | Change Station
CLOSE
Current Station
Airport
Location: Kotzebue,
Elevation: 16 ft
Nearby Weather Stations

Elev 16 ft 66.88 °N, 162.60 °W | Updated 45 minutes ago

Scattered Clouds
Scattered Clouds
45 °F
Feels Like 37 °F
N
20
Wind Variable Wind from WNW
Gusts 30 mph

Today
High -- | Low -- °F
--% Chance of Precip.
Yesterday
High -- | Low -- °F
Precip. -- in
7:06 AM 10:29 PM
Waxing Crescent, 12% visible
Pressure 29.63 in
Visibility 10.0 miles
Clouds Few 3000 ft
Scattered Clouds 5000 ft
Windchill 37 °F
Dew Point 36 °F
Humidity 71%
Rainfall 0.01 in
Snow Depth Not available.
UV 0 out of 12
Pollen Not available.
Air Quality Not available.
Flu Activity Not available.
METAR PAOT 290553Z 30017G26KT 10SM FEW030 SCT050 07/02 A2963 RMK AO2 SLP032

More Conditions Fewer Conditions

Pressure 29.63 in
Visibility 10.0 miles
Clouds Few 3000 ft
Scattered Clouds 5000 ft
Windchill 37 °F
Dew Point 36 °F
Humidity 71%
Rainfall 0.01 in
Snow Depth Not available.
UV 0 out of 12
Pollen Not available.
Air Quality Not available.
Flu Activity Not available.
METAR PAOT 290553Z 30017G26KT 10SM FEW030 SCT050 07/02 A2963 RMK AO2 SLP032

More Conditions Fewer Conditions

10-Day Weather Forecast

Almanac

Astronomy

Aug. 28, 2014 Rise Set
Actual Time 7:06 AM AKDT 10:29 PM AKDT
Civil Twilight 6:01 AM AKDT 11:33 PM AKDT
Nautical Twilight 4:11 AM AKDT 1:18 AM AKDT
Astronomical Twilight Sun does not rise Sun does not rise
Moon 11:48 AM AKDT (8/28) 10:13 PM AKDT (8/28)
Length of Visible Light 17h 31m
Length of Day
15h 23m
Tomorrow will be 7m 35s shorter.
Waxing Crescent, 12% of the Moon is Illuminated
Aug 29
Waxing Crescent
Sep 2
First Quarter
Sep 8
Full
Sep 15
Last Quarter
Sep 24
New

Community

WunderPhotos

Upload Photos

1,748,197 photos uploaded!

Nearby

Snow Depth

Station Depth Elevation
Rocky Point 5 in 500 ft
Gobblers Knob 0 in 2030 ft
Coldfoot 0 in 1040 ft
Atigun Pass 0 in 4800 ft
Imnaviat Creek 0 in 3050 ft

Earthquake Activity

City Distance Mag. Time & Date
No recent earthquake activity has been reported nearby.
Minimum magnitude displayed is 2.5.

Coastal Water Temperatures

Place Temperature
No Stations Reporting

Nearby Weather Stations